sensor_id;sensor_type;location;lat;lon;timestamp;temperature;humidity
32614;DHT22;19031;51.400;6.770;2022-08-24T00:00:57;20.10;53.30
32614;DHT22;19031;51.400;6.770;2022-08-24T00:03:22;20.00;54.00
32614;DHT22;19031;51.400;6.770;2022-08-24T00:05:49;20.00;46.00
32614;DHT22;19031;51.400;6.770;2022-08-24T00:08:15;20.00;47.80
32614;DHT22;19031;51.400;6.770;2022-08-24T00:10:41;20.00;50.60
32614;DHT22;19031;51.400;6.770;2022-08-24T00:13:07;19.90;63.00
32614;DHT22;19031;51.400;6.770;2022-08-24T00:15:33;19.90;62.70
32614;DHT22;19031;51.400;6.770;2022-08-24T00:17:59;19.90;58.00
32614;DHT22;19031;51.400;6.770;2022-08-24T00:20:25;19.90;60.80
32614;DHT22;19031;51.400;6.770;2022-08-24T00:22:51;19.90;51.80
32614;DHT22;19031;51.400;6.770;2022-08-24T00:25:17;19.90;58.60
32614;DHT22;19031;51.400;6.770;2022-08-24T00:27:45;19.80;59.60
32614;DHT22;19031;51.400;6.770;2022-08-24T00:30:13;19.80;61.80
32614;DHT22;19031;51.400;6.770;2022-08-24T00:32:43;19.80;61.20
32614;DHT22;19031;51.400;6.770;2022-08-24T00:35:10;19.80;55.20
32614;DHT22;19031;51.400;6.770;2022-08-24T00:37:37;19.70;61.90
32614;DHT22;19031;51.400;6.770;2022-08-24T00:40:05;19.70;63.00
32614;DHT22;19031;51.400;6.770;2022-08-24T00:42:32;19.60;63.30
32614;DHT22;19031;51.400;6.770;2022-08-24T00:44:58;19.60;64.50
32614;DHT22;19031;51.400;6.770;2022-08-24T00:47:28;19.60;64.40
32614;DHT22;19031;51.400;6.770;2022-08-24T00:49:59;19.60;61.50
32614;DHT22;19031;51.400;6.770;2022-08-24T00:52:31;19.60;71.60
32614;DHT22;19031;51.400;6.770;2022-08-24T00:55:07;19.60;73.20
32614;DHT22;19031;51.400;6.770;2022-08-24T00:57:39;19.50;75.20
32614;DHT22;19031;51.400;6.770;2022-08-24T01:00:24;19.50;71.10
32614;DHT22;19031;51.400;6.770;2022-08-24T01:02:58;19.50;67.80
32614;DHT22;19031;51.400;6.770;2022-08-24T01:05:32;19.50;78.40
32614;DHT22;19031;51.400;6.770;2022-08-24T01:08:00;19.40;71.80
32614;DHT22;19031;51.400;6.770;2022-08-24T01:10:29;19.40;74.80
32614;DHT22;19031;51.400;6.770;2022-08-24T01:12:57;19.50;77.70
32614;DHT22;19031;51.400;6.770;2022-08-24T01:15:24;19.40;75.60
32614;DHT22;19031;51.400;6.770;2022-08-24T01:17:50;19.40;71.40
32614;DHT22;19031;51.400;6.770;2022-08-24T01:20:34;19.30;67.90
32614;DHT22;19031;51.400;6.770;2022-08-24T01:23:12;19.30;60.50
32614;DHT22;19031;51.400;6.770;2022-08-24T01:25:42;19.30;58.40
32614;DHT22;19031;51.400;6.770;2022-08-24T01:28:18;19.20;67.00
32614;DHT22;19031;51.400;6.770;2022-08-24T01:30:44;19.30;67.00
32614;DHT22;19031;51.400;6.770;2022-08-24T01:33:23;19.20;71.60
32614;DHT22;19031;51.400;6.770;2022-08-24T01:35:49;19.20;63.30
32614;DHT22;19031;51.400;6.770;2022-08-24T01:38:15;19.20;62.50
32614;DHT22;19031;51.400;6.770;2022-08-24T01:40:45;19.10;65.20
32614;DHT22;19031;51.400;6.770;2022-08-24T01:43:12;19.10;68.40
32614;DHT22;19031;51.400;6.770;2022-08-24T01:45:39;19.10;63.10
32614;DHT22;19031;51.400;6.770;2022-08-24T01:48:05;19.00;71.20
32614;DHT22;19031;51.400;6.770;2022-08-24T01:50:31;19.00;77.00
32614;DHT22;19031;51.400;6.770;2022-08-24T01:53:00;19.00;77.00
32614;DHT22;19031;51.400;6.770;2022-08-24T01:55:27;19.00;71.30
32614;DHT22;19031;51.400;6.770;2022-08-24T01:57:53;19.00;70.80
32614;DHT22;19031;51.400;6.770;2022-08-24T02:00:19;19.00;69.10
32614;DHT22;19031;51.400;6.770;2022-08-24T02:02:44;18.90;76.40
32614;DHT22;19031;51.400;6.770;2022-08-24T02:05:12;18.90;73.60
32614;DHT22;19031;51.400;6.770;2022-08-24T02:07:38;18.90;72.20
32614;DHT22;19031;51.400;6.770;2022-08-24T02:10:06;18.80;77.00
32614;DHT22;19031;51.400;6.770;2022-08-24T02:12:35;18.80;87.30
32614;DHT22;19031;51.400;6.770;2022-08-24T02:15:01;18.70;82.80
32614;DHT22;19031;51.400;6.770;2022-08-24T02:17:27;18.80;81.70
32614;DHT22;19031;51.400;6.770;2022-08-24T02:19:53;18.80;81.90
32614;DHT22;19031;51.400;6.770;2022-08-24T02:22:19;18.70;71.60
32614;DHT22;19031;51.400;6.770;2022-08-24T02:24:44;18.80;70.90
32614;DHT22;19031;51.400;6.770;2022-08-24T02:27:10;18.70;69.20
32614;DHT22;19031;51.400;6.770;2022-08-24T02:29:36;18.70;72.60
32614;DHT22;19031;51.400;6.770;2022-08-24T02:32:02;18.70;70.90
32614;DHT22;19031;51.400;6.770;2022-08-24T02:34:28;18.70;75.00
32614;DHT22;19031;51.400;6.770;2022-08-24T02:36:54;18.60;75.80
32614;DHT22;19031;51.400;6.770;2022-08-24T02:39:19;18.60;80.80
32614;DHT22;19031;51.400;6.770;2022-08-24T02:41:45;18.50;80.20
32614;DHT22;19031;51.400;6.770;2022-08-24T02:44:11;18.50;80.30
32614;DHT22;19031;51.400;6.770;2022-08-24T02:46:36;18.50;78.60
32614;DHT22;19031;51.400;6.770;2022-08-24T02:49:02;18.50;87.10
32614;DHT22;19031;51.400;6.770;2022-08-24T02:51:31;18.40;87.70
32614;DHT22;19031;51.400;6.770;2022-08-24T02:53:58;18.50;88.60
32614;DHT22;19031;51.400;6.770;2022-08-24T02:56:25;18.50;83.90
32614;DHT22;19031;51.400;6.770;2022-08-24T02:58:51;18.40;86.80
32614;DHT22;19031;51.400;6.770;2022-08-24T03:01:17;18.40;84.80
32614;DHT22;19031;51.400;6.770;2022-08-24T03:03:43;18.40;86.30
32614;DHT22;19031;51.400;6.770;2022-08-24T03:06:09;18.50;84.30
32614;DHT22;19031;51.400;6.770;2022-08-24T03:08:36;18.40;81.50
32614;DHT22;19031;51.400;6.770;2022-08-24T03:11:02;18.40;82.70
32614;DHT22;19031;51.400;6.770;2022-08-24T03:13:29;18.40;83.80
32614;DHT22;19031;51.400;6.770;2022-08-24T03:15:56;18.40;88.70
32614;DHT22;19031;51.400;6.770;2022-08-24T03:18:23;18.40;83.40
32614;DHT22;19031;51.400;6.770;2022-08-24T03:20:54;18.40;89.30
32614;DHT22;19031;51.400;6.770;2022-08-24T03:23:21;18.40;91.30
32614;DHT22;19031;51.400;6.770;2022-08-24T03:25:48;18.30;89.10
32614;DHT22;19031;51.400;6.770;2022-08-24T03:28:13;18.30;86.70
32614;DHT22;19031;51.400;6.770;2022-08-24T03:30:40;18.30;92.50
32614;DHT22;19031;51.400;6.770;2022-08-24T03:33:08;18.30;93.20
32614;DHT22;19031;51.400;6.770;2022-08-24T03:35:35;18.30;89.20
32614;DHT22;19031;51.400;6.770;2022-08-24T03:38:00;18.20;85.90
32614;DHT22;19031;51.400;6.770;2022-08-24T03:40:26;18.30;84.00
32614;DHT22;19031;51.400;6.770;2022-08-24T03:42:53;18.30;81.50
32614;DHT22;19031;51.400;6.770;2022-08-24T03:45:20;18.20;91.40
32614;DHT22;19031;51.400;6.770;2022-08-24T03:47:46;18.20;93.50
32614;DHT22;19031;51.400;6.770;2022-08-24T03:50:12;18.20;95.10
32614;DHT22;19031;51.400;6.770;2022-08-24T03:52:38;18.20;94.10
32614;DHT22;19031;51.400;6.770;2022-08-24T03:55:07;18.20;94.00
32614;DHT22;19031;51.400;6.770;2022-08-24T03:57:33;18.20;94.70
32614;DHT22;19031;51.400;6.770;2022-08-24T03:59:59;18.20;93.90
32614;DHT22;19031;51.400;6.770;2022-08-24T04:02:25;18.10;94.60
32614;DHT22;19031;51.400;6.770;2022-08-24T04:04:51;18.10;92.40
32614;DHT22;19031;51.400;6.770;2022-08-24T04:07:17;18.00;93.40
32614;DHT22;19031;51.400;6.770;2022-08-24T04:09:43;18.00;91.20
32614;DHT22;19031;51.400;6.770;2022-08-24T04:12:08;18.00;91.60
32614;DHT22;19031;51.400;6.770;2022-08-24T04:14:34;18.00;91.40
32614;DHT22;19031;51.400;6.770;2022-08-24T04:17:00;18.00;88.30
32614;DHT22;19031;51.400;6.770;2022-08-24T04:19:26;17.90;88.10
32614;DHT22;19031;51.400;6.770;2022-08-24T04:21:52;18.00;89.50
32614;DHT22;19031;51.400;6.770;2022-08-24T04:24:19;17.90;91.00
32614;DHT22;19031;51.400;6.770;2022-08-24T04:26:45;18.00;91.00
32614;DHT22;19031;51.400;6.770;2022-08-24T04:29:11;17.90;89.60
32614;DHT22;19031;51.400;6.770;2022-08-24T04:31:39;17.90;89.00
32614;DHT22;19031;51.400;6.770;2022-08-24T04:34:05;17.90;87.80
32614;DHT22;19031;51.400;6.770;2022-08-24T04:36:32;17.90;89.50
32614;DHT22;19031;51.400;6.770;2022-08-24T04:38:58;17.80;91.20
32614;DHT22;19031;51.400;6.770;2022-08-24T04:41:25;17.90;91.80
32614;DHT22;19031;51.400;6.770;2022-08-24T04:43:51;17.90;92.60
32614;DHT22;19031;51.400;6.770;2022-08-24T04:46:18;17.90;92.40
32614;DHT22;19031;51.400;6.770;2022-08-24T04:48:47;17.90;96.90
32614;DHT22;19031;51.400;6.770;2022-08-24T04:51:14;17.90;98.00
32614;DHT22;19031;51.400;6.770;2022-08-24T04:53:42;17.90;95.20
32614;DHT22;19031;51.400;6.770;2022-08-24T04:56:11;17.90;95.00
32614;DHT22;19031;51.400;6.770;2022-08-24T04:58:37;17.90;93.00
32614;DHT22;19031;51.400;6.770;2022-08-24T05:01:24;17.80;94.10
32614;DHT22;19031;51.400;6.770;2022-08-24T05:03:52;17.90;92.80
32614;DHT22;19031;51.400;6.770;2022-08-24T05:06:19;17.90;93.30
32614;DHT22;19031;51.400;6.770;2022-08-24T05:08:46;17.90;95.20
32614;DHT22;19031;51.400;6.770;2022-08-24T05:11:12;17.90;96.10
32614;DHT22;19031;51.400;6.770;2022-08-24T05:13:39;18.00;96.10
32614;DHT22;19031;51.400;6.770;2022-08-24T05:16:07;18.00;96.70
32614;DHT22;19031;51.400;6.770;2022-08-24T05:18:33;18.00;96.50
32614;DHT22;19031;51.400;6.770;2022-08-24T05:20:59;18.10;96.10
32614;DHT22;19031;51.400;6.770;2022-08-24T05:23:25;18.10;96.60
32614;DHT22;19031;51.400;6.770;2022-08-24T05:25:51;18.10;96.20
32614;DHT22;19031;51.400;6.770;2022-08-24T05:28:17;18.10;96.70
32614;DHT22;19031;51.400;6.770;2022-08-24T05:30:43;18.10;97.50
32614;DHT22;19031;51.400;6.770;2022-08-24T05:33:09;18.20;97.90
32614;DHT22;19031;51.400;6.770;2022-08-24T05:35:38;18.30;98.10
32614;DHT22;19031;51.400;6.770;2022-08-24T05:38:05;18.30;99.20
32614;DHT22;19031;51.400;6.770;2022-08-24T05:40:31;18.40;99.60
32614;DHT22;19031;51.400;6.770;2022-08-24T05:42:57;18.50;99.90
32614;DHT22;19031;51.400;6.770;2022-08-24T05:45:22;18.50;99.90
32614;DHT22;19031;51.400;6.770;2022-08-24T05:47:48;18.60;99.90
32614;DHT22;19031;51.400;6.770;2022-08-24T05:50:14;18.60;99.90
32614;DHT22;19031;51.400;6.770;2022-08-24T05:52:40;18.70;99.30
32614;DHT22;19031;51.400;6.770;2022-08-24T05:55:06;18.80;98.80
32614;DHT22;19031;51.400;6.770;2022-08-24T05:57:35;18.80;98.60
32614;DHT22;19031;51.400;6.770;2022-08-24T06:00:04;18.90;98.30
32614;DHT22;19031;51.400;6.770;2022-08-24T06:02:34;18.90;98.20
32614;DHT22;19031;51.400;6.770;2022-08-24T06:05:00;18.90;98.20
32614;DHT22;19031;51.400;6.770;2022-08-24T06:07:25;18.90;98.20
32614;DHT22;19031;51.400;6.770;2022-08-24T06:09:51;19.00;98.50
32614;DHT22;19031;51.400;6.770;2022-08-24T06:12:18;19.00;98.90
32614;DHT22;19031;51.400;6.770;2022-08-24T06:14:45;19.00;98.90
32614;DHT22;19031;51.400;6.770;2022-08-24T06:17:12;19.00;99.10
32614;DHT22;19031;51.400;6.770;2022-08-24T06:19:37;19.20;99.40
32614;DHT22;19031;51.400;6.770;2022-08-24T06:22:03;19.20;99.10
32614;DHT22;19031;51.400;6.770;2022-08-24T06:24:29;19.30;97.40
32614;DHT22;19031;51.400;6.770;2022-08-24T06:27:15;19.40;96.10
32614;DHT22;19031;51.400;6.770;2022-08-24T06:32:13;19.80;86.30
32614;DHT22;19031;51.400;6.770;2022-08-24T06:34:39;20.00;84.40
32614;DHT22;19031;51.400;6.770;2022-08-24T06:37:05;20.20;73.30
32614;DHT22;19031;51.400;6.770;2022-08-24T06:39:31;20.50;65.40
32614;DHT22;19031;51.400;6.770;2022-08-24T06:41:56;20.80;59.50
32614;DHT22;19031;51.400;6.770;2022-08-24T06:44:22;20.90;46.40
32614;DHT22;19031;51.400;6.770;2022-08-24T06:46:47;21.10;46.80
32614;DHT22;19031;51.400;6.770;2022-08-24T06:49:14;21.30;39.50
32614;DHT22;19031;51.400;6.770;2022-08-24T06:51:40;21.50;22.30
32614;DHT22;19031;51.400;6.770;2022-08-24T06:54:05;21.70;9.50
32614;DHT22;19031;51.400;6.770;2022-08-24T06:56:31;21.90;1.00
32614;DHT22;19031;51.400;6.770;2022-08-24T06:58:59;22.20;1.00
32614;DHT22;19031;51.400;6.770;2022-08-24T07:01:26;22.40;1.00
32614;DHT22;19031;51.400;6.770;2022-08-24T07:03:53;22.60;1.00
32614;DHT22;19031;51.400;6.770;2022-08-24T07:06:19;22.80;1.00
32614;DHT22;19031;51.400;6.770;2022-08-24T07:08:45;23.10;99.90
32614;DHT22;19031;51.400;6.770;2022-08-24T07:11:11;23.40;99.90
32614;DHT22;19031;51.400;6.770;2022-08-24T07:13:41;23.60;99.90
32614;DHT22;19031;51.400;6.770;2022-08-24T07:16:10;23.80;99.90
32614;DHT22;19031;51.400;6.770;2022-08-24T07:18:37;24.10;99.90
32614;DHT22;19031;51.400;6.770;2022-08-24T07:21:03;24.30;99.90
32614;DHT22;19031;51.400;6.770;2022-08-24T07:23:39;24.50;99.90
32614;DHT22;19031;51.400;6.770;2022-08-24T07:26:10;24.80;1.00
32614;DHT22;19031;51.400;6.770;2022-08-24T07:28:37;25.10;24.40
32614;DHT22;19031;51.400;6.770;2022-08-24T07:31:04;25.40;99.90
32614;DHT22;19031;51.400;6.770;2022-08-24T07:33:30;25.50;99.90
32614;DHT22;19031;51.400;6.770;2022-08-24T07:35:56;25.70;99.90
32614;DHT22;19031;51.400;6.770;2022-08-24T07:38:22;25.90;30.20
32614;DHT22;19031;51.400;6.770;2022-08-24T07:40:48;26.10;99.90
32614;DHT22;19031;51.400;6.770;2022-08-24T07:43:15;26.40;99.90
32614;DHT22;19031;51.400;6.770;2022-08-24T07:45:41;26.80;87.10
32614;DHT22;19031;51.400;6.770;2022-08-24T07:48:08;27.00;99.90
32614;DHT22;19031;51.400;6.770;2022-08-24T07:50:34;27.10;99.90
32614;DHT22;19031;51.400;6.770;2022-08-24T07:52:59;27.30;99.90
32614;DHT22;19031;51.400;6.770;2022-08-24T07:55:26;27.60;99.90
32614;DHT22;19031;51.400;6.770;2022-08-24T07:57:51;27.80;99.90
32614;DHT22;19031;51.400;6.770;2022-08-24T08:00:20;28.10;99.90
32614;DHT22;19031;51.400;6.770;2022-08-24T08:02:46;28.20;99.90
32614;DHT22;19031;51.400;6.770;2022-08-24T08:05:18;28.40;99.90
32614;DHT22;19031;51.400;6.770;2022-08-24T08:07:44;28.50;99.90
32614;DHT22;19031;51.400;6.770;2022-08-24T08:10:10;28.80;99.90
32614;DHT22;19031;51.400;6.770;2022-08-24T08:12:36;29.00;99.90
32614;DHT22;19031;51.400;6.770;2022-08-24T08:15:06;29.40;99.90
32614;DHT22;19031;51.400;6.770;2022-08-24T08:17:37;29.40;99.90
32614;DHT22;19031;51.400;6.770;2022-08-24T08:20:05;29.60;29.20
32614;DHT22;19031;51.400;6.770;2022-08-24T08:22:34;29.80;18.60
32614;DHT22;19031;51.400;6.770;2022-08-24T08:25:19;30.20;1.00
32614;DHT22;19031;51.400;6.770;2022-08-24T08:27:44;30.60;99.90
32614;DHT22;19031;51.400;6.770;2022-08-24T08:30:14;30.90;99.90
32614;DHT22;19031;51.400;6.770;2022-08-24T08:32:40;31.30;99.90
32614;DHT22;19031;51.400;6.770;2022-08-24T08:35:05;31.50;99.90
32614;DHT22;19031;51.400;6.770;2022-08-24T08:37:31;31.80;99.90
32614;DHT22;19031;51.400;6.770;2022-08-24T08:39:59;32.00;99.90
32614;DHT22;19031;51.400;6.770;2022-08-24T08:42:42;32.10;99.90
32614;DHT22;19031;51.400;6.770;2022-08-24T08:45:34;32.20;99.90
32614;DHT22;19031;51.400;6.770;2022-08-24T08:54:07;32.80;28.70
32614;DHT22;19031;51.400;6.770;2022-08-24T08:59:39;33.10;6.30
32614;DHT22;19031;51.400;6.770;2022-08-24T09:12:56;33.50;1.00
32614;DHT22;19031;51.400;6.770;2022-08-24T09:19:13;34.20;1.00
32614;DHT22;19031;51.400;6.770;2022-08-24T09:22:10;34.20;1.00
32614;DHT22;19031;51.400;6.770;2022-08-24T09:27:41;33.80;1.00
32614;DHT22;19031;51.400;6.770;2022-08-24T09:30:17;33.80;1.00
32614;DHT22;19031;51.400;6.770;2022-08-24T09:38:23;34.80;1.00
32614;DHT22;19031;51.400;6.770;2022-08-24T09:58:34;36.30;99.90
32614;DHT22;19031;51.400;6.770;2022-08-24T10:00:45;36.50;99.90
32614;DHT22;19031;51.400;6.770;2022-08-24T10:05:58;36.20;99.90
32614;DHT22;19031;51.400;6.770;2022-08-24T10:08:56;36.50;99.90
32614;DHT22;19031;51.400;6.770;2022-08-24T10:22:23;37.20;99.90
32614;DHT22;19031;51.400;6.770;2022-08-24T10:30:36;37.40;99.90
32614;DHT22;19031;51.400;6.770;2022-08-24T10:38:51;37.70;99.90
32614;DHT22;19031;51.400;6.770;2022-08-24T10:50:58;39.00;99.90
32614;DHT22;19031;51.400;6.770;2022-08-24T10:53:29;39.40;99.90
32614;DHT22;19031;51.400;6.770;2022-08-24T10:56:10;39.80;99.90
32614;DHT22;19031;51.400;6.770;2022-08-24T10:59:01;39.20;99.90
32614;DHT22;19031;51.400;6.770;2022-08-24T11:01:31;39.10;99.90
32614;DHT22;19031;51.400;6.770;2022-08-24T11:04:02;38.80;99.90
32614;DHT22;19031;51.400;6.770;2022-08-24T11:06:40;39.00;99.90
32614;DHT22;19031;51.400;6.770;2022-08-24T11:09:12;39.10;99.90
32614;DHT22;19031;51.400;6.770;2022-08-24T11:11:47;38.50;99.90
32614;DHT22;19031;51.400;6.770;2022-08-24T11:16:42;38.80;99.90
32614;DHT22;19031;51.400;6.770;2022-08-24T11:19:15;38.50;99.90
32614;DHT22;19031;51.400;6.770;2022-08-24T11:21:58;38.80;99.90
32614;DHT22;19031;51.400;6.770;2022-08-24T11:37:36;39.70;99.90
32614;DHT22;19031;51.400;6.770;2022-08-24T11:40:05;39.80;99.90
32614;DHT22;19031;51.400;6.770;2022-08-24T11:47:58;41.20;99.90
32614;DHT22;19031;51.400;6.770;2022-08-24T11:50:34;41.20;99.90
32614;DHT22;19031;51.400;6.770;2022-08-24T12:12:21;41.80;99.90
32614;DHT22;19031;51.400;6.770;2022-08-24T12:14:58;41.80;99.90
32614;DHT22;19031;51.400;6.770;2022-08-24T12:17:36;41.90;99.90
32614;DHT22;19031;51.400;6.770;2022-08-24T12:20:28;41.60;99.90
32614;DHT22;19031;51.400;6.770;2022-08-24T12:23:06;41.30;99.90
32614;DHT22;19031;51.400;6.770;2022-08-24T12:25:33;41.80;99.90
32614;DHT22;19031;51.400;6.770;2022-08-24T12:28:28;41.10;99.90
32614;DHT22;19031;51.400;6.770;2022-08-24T12:30:57;41.30;99.90
32614;DHT22;19031;51.400;6.770;2022-08-24T12:33:30;41.90;99.90
32614;DHT22;19031;51.400;6.770;2022-08-24T12:36:02;41.70;99.90
32614;DHT22;19031;51.400;6.770;2022-08-24T12:38:40;41.20;99.90
32614;DHT22;19031;51.400;6.770;2022-08-24T12:41:23;41.90;99.90
32614;DHT22;19031;51.400;6.770;2022-08-24T12:44:12;42.00;99.90
32614;DHT22;19031;51.400;6.770;2022-08-24T12:46:39;42.10;99.90
32614;DHT22;19031;51.400;6.770;2022-08-24T12:54:34;42.00;99.90
32614;DHT22;19031;51.400;6.770;2022-08-24T12:59:55;42.30;99.90
32614;DHT22;19031;51.400;6.770;2022-08-24T13:17:55;40.60;99.90
32614;DHT22;19031;51.400;6.770;2022-08-24T13:20:23;40.90;99.90
32614;DHT22;19031;51.400;6.770;2022-08-24T13:23:13;41.50;99.90
32614;DHT22;19031;51.400;6.770;2022-08-24T13:33:44;41.70;99.90
32614;DHT22;19031;51.400;6.770;2022-08-24T13:47:21;41.40;99.90
32614;DHT22;19031;51.400;6.770;2022-08-24T13:54:57;41.60;99.90
32614;DHT22;19031;51.400;6.770;2022-08-24T13:57:51;41.90;99.90
32614;DHT22;19031;51.400;6.770;2022-08-24T14:03:20;40.90;99.90
32614;DHT22;19031;51.400;6.770;2022-08-24T14:06:02;40.00;99.90
32614;DHT22;19031;51.400;6.770;2022-08-24T14:11:20;38.80;99.90
32614;DHT22;19031;51.400;6.770;2022-08-24T14:20:03;37.80;99.90
32614;DHT22;19031;51.400;6.770;2022-08-24T14:22:51;37.70;99.90
32614;DHT22;19031;51.400;6.770;2022-08-24T14:25:23;36.90;99.90
32614;DHT22;19031;51.400;6.770;2022-08-24T14:30:43;36.90;99.90
32614;DHT22;19031;51.400;6.770;2022-08-24T14:33:29;36.70;99.90
32614;DHT22;19031;51.400;6.770;2022-08-24T14:36:07;36.70;99.90
32614;DHT22;19031;51.400;6.770;2022-08-24T14:44:21;37.40;99.90
32614;DHT22;19031;51.400;6.770;2022-08-24T14:49:35;38.30;99.90
32614;DHT22;19031;51.400;6.770;2022-08-24T14:57:46;39.00;99.90
32614;DHT22;19031;51.400;6.770;2022-08-24T15:10:44;38.60;99.90
32614;DHT22;19031;51.400;6.770;2022-08-24T15:13:28;39.00;99.90
32614;DHT22;19031;51.400;6.770;2022-08-24T15:21:47;38.70;99.90
32614;DHT22;19031;51.400;6.770;2022-08-24T15:29:49;37.80;99.90
32614;DHT22;19031;51.400;6.770;2022-08-24T15:32:19;37.30;99.90
32614;DHT22;19031;51.400;6.770;2022-08-24T15:37:15;36.70;99.90
32614;DHT22;19031;51.400;6.770;2022-08-24T15:39:48;36.40;99.90
32614;DHT22;19031;51.400;6.770;2022-08-24T15:42:14;36.80;99.90
32614;DHT22;19031;51.400;6.770;2022-08-24T15:44:49;36.60;99.90
32614;DHT22;19031;51.400;6.770;2022-08-24T15:49:57;36.60;99.90
32614;DHT22;19031;51.400;6.770;2022-08-24T15:55:25;36.40;99.90
32614;DHT22;19031;51.400;6.770;2022-08-24T15:57:52;36.50;99.90
32614;DHT22;19031;51.400;6.770;2022-08-24T16:00:23;36.50;99.90
32614;DHT22;19031;51.400;6.770;2022-08-24T16:03:27;36.40;99.90
32614;DHT22;19031;51.400;6.770;2022-08-24T16:14:43;35.80;99.90
32614;DHT22;19031;51.400;6.770;2022-08-24T16:17:34;36.00;99.90
32614;DHT22;19031;51.400;6.770;2022-08-24T16:20:04;36.10;99.90
32614;DHT22;19031;51.400;6.770;2022-08-24T16:22:34;36.30;99.90
32614;DHT22;19031;51.400;6.770;2022-08-24T16:30:40;36.20;99.90
32614;DHT22;19031;51.400;6.770;2022-08-24T16:33:06;36.30;99.90
32614;DHT22;19031;51.400;6.770;2022-08-24T16:35:32;36.10;99.90
32614;DHT22;19031;51.400;6.770;2022-08-24T16:37:59;36.10;99.90
32614;DHT22;19031;51.400;6.770;2022-08-24T16:40:26;36.20;99.90
32614;DHT22;19031;51.400;6.770;2022-08-24T16:42:52;36.10;99.90
32614;DHT22;19031;51.400;6.770;2022-08-24T16:45:20;35.90;99.90
32614;DHT22;19031;51.400;6.770;2022-08-24T16:47:47;35.80;99.90
32614;DHT22;19031;51.400;6.770;2022-08-24T16:50:18;35.70;99.90
32614;DHT22;19031;51.400;6.770;2022-08-24T16:52:44;35.60;99.90
32614;DHT22;19031;51.400;6.770;2022-08-24T16:55:10;35.50;99.90
32614;DHT22;19031;51.400;6.770;2022-08-24T16:57:39;35.40;99.90
32614;DHT22;19031;51.400;6.770;2022-08-24T17:00:10;35.30;99.90
32614;DHT22;19031;51.400;6.770;2022-08-24T17:02:39;35.10;99.90
32614;DHT22;19031;51.400;6.770;2022-08-24T17:05:05;35.00;99.90
32614;DHT22;19031;51.400;6.770;2022-08-24T17:07:31;34.90;99.90
32614;DHT22;19031;51.400;6.770;2022-08-24T17:09:59;34.80;99.90
32614;DHT22;19031;51.400;6.770;2022-08-24T17:12:26;34.70;99.90
32614;DHT22;19031;51.400;6.770;2022-08-24T17:14:52;34.60;99.90
32614;DHT22;19031;51.400;6.770;2022-08-24T17:17:21;34.50;99.90
32614;DHT22;19031;51.400;6.770;2022-08-24T17:19:51;34.00;99.90
32614;DHT22;19031;51.400;6.770;2022-08-24T17:22:18;34.00;99.90
32614;DHT22;19031;51.400;6.770;2022-08-24T17:24:45;34.00;99.90
32614;DHT22;19031;51.400;6.770;2022-08-24T17:27:14;33.90;99.90
32614;DHT22;19031;51.400;6.770;2022-08-24T17:29:41;33.80;99.90
32614;DHT22;19031;51.400;6.770;2022-08-24T17:32:08;33.70;99.90
32614;DHT22;19031;51.400;6.770;2022-08-24T17:34:34;33.60;99.90
32614;DHT22;19031;51.400;6.770;2022-08-24T17:37:01;33.50;99.90
32614;DHT22;19031;51.400;6.770;2022-08-24T17:39:27;33.40;99.90
32614;DHT22;19031;51.400;6.770;2022-08-24T17:41:57;33.20;99.90
32614;DHT22;19031;51.400;6.770;2022-08-24T17:44:27;33.00;99.90
32614;DHT22;19031;51.400;6.770;2022-08-24T17:46:57;32.80;99.90
32614;DHT22;19031;51.400;6.770;2022-08-24T17:49:24;32.80;99.90
32614;DHT22;19031;51.400;6.770;2022-08-24T17:51:50;32.60;99.90
32614;DHT22;19031;51.400;6.770;2022-08-24T17:54:16;32.50;99.90
32614;DHT22;19031;51.400;6.770;2022-08-24T17:56:45;32.30;99.90
32614;DHT22;19031;51.400;6.770;2022-08-24T17:59:14;32.30;99.90
32614;DHT22;19031;51.400;6.770;2022-08-24T18:02:01;32.10;1.00
32614;DHT22;19031;51.400;6.770;2022-08-24T18:04:28;31.90;1.00
32614;DHT22;19031;51.400;6.770;2022-08-24T18:07:03;31.80;29.80
32614;DHT22;19031;51.400;6.770;2022-08-24T18:09:35;31.60;1.00
32614;DHT22;19031;51.400;6.770;2022-08-24T18:12:03;31.40;88.80
32614;DHT22;19031;51.400;6.770;2022-08-24T18:14:30;31.10;1.00
32614;DHT22;19031;51.400;6.770;2022-08-24T18:17:00;30.90;1.00
32614;DHT22;19031;51.400;6.770;2022-08-24T18:19:26;30.80;85.80
32614;DHT22;19031;51.400;6.770;2022-08-24T18:21:52;30.70;99.90
32614;DHT22;19031;51.400;6.770;2022-08-24T18:24:18;30.50;99.90
32614;DHT22;19031;51.400;6.770;2022-08-24T18:26:45;30.30;59.90
32614;DHT22;19031;51.400;6.770;2022-08-24T18:29:14;30.10;99.90
32614;DHT22;19031;51.400;6.770;2022-08-24T18:31:40;30.10;99.90
32614;DHT22;19031;51.400;6.770;2022-08-24T18:34:19;29.90;1.00
32614;DHT22;19031;51.400;6.770;2022-08-24T18:36:45;29.60;99.90
32614;DHT22;19031;51.400;6.770;2022-08-24T18:39:11;29.50;99.90
32614;DHT22;19031;51.400;6.770;2022-08-24T18:41:39;29.30;93.80
32614;DHT22;19031;51.400;6.770;2022-08-24T18:44:07;29.10;1.00
32614;DHT22;19031;51.400;6.770;2022-08-24T18:46:33;29.00;99.90
32614;DHT22;19031;51.400;6.770;2022-08-24T18:49:00;28.80;94.90
32614;DHT22;19031;51.400;6.770;2022-08-24T18:51:26;28.70;1.00
32614;DHT22;19031;51.400;6.770;2022-08-24T18:54:04;28.60;99.90
32614;DHT22;19031;51.400;6.770;2022-08-24T18:56:31;28.40;99.90
32614;DHT22;19031;51.400;6.770;2022-08-24T18:58:58;28.20;99.90
32614;DHT22;19031;51.400;6.770;2022-08-24T19:01:24;28.20;6.10
32614;DHT22;19031;51.400;6.770;2022-08-24T19:03:51;28.00;99.90
32614;DHT22;19031;51.400;6.770;2022-08-24T19:06:17;27.90;99.90
32614;DHT22;19031;51.400;6.770;2022-08-24T19:08:43;27.80;99.90
32614;DHT22;19031;51.400;6.770;2022-08-24T19:11:09;27.70;99.90
32614;DHT22;19031;51.400;6.770;2022-08-24T19:13:35;27.50;99.90
32614;DHT22;19031;51.400;6.770;2022-08-24T19:16:04;27.40;99.90
32614;DHT22;19031;51.400;6.770;2022-08-24T19:18:30;27.30;99.90
32614;DHT22;19031;51.400;6.770;2022-08-24T19:20:56;27.20;99.90
32614;DHT22;19031;51.400;6.770;2022-08-24T19:23:27;27.10;1.00
32614;DHT22;19031;51.400;6.770;2022-08-24T19:25:55;27.00;99.90
32614;DHT22;19031;51.400;6.770;2022-08-24T19:28:23;26.90;99.90
32614;DHT22;19031;51.400;6.770;2022-08-24T19:30:48;26.80;1.00
32614;DHT22;19031;51.400;6.770;2022-08-24T19:33:27;26.70;99.90
32614;DHT22;19031;51.400;6.770;2022-08-24T19:35:53;26.70;99.90
32614;DHT22;19031;51.400;6.770;2022-08-24T19:38:22;26.50;99.90
32614;DHT22;19031;51.400;6.770;2022-08-24T19:40:48;26.50;99.90
32614;DHT22;19031;51.400;6.770;2022-08-24T19:43:14;26.40;99.90
32614;DHT22;19031;51.400;6.770;2022-08-24T19:45:39;26.40;2.00
32614;DHT22;19031;51.400;6.770;2022-08-24T19:48:23;26.40;99.90
32614;DHT22;19031;51.400;6.770;2022-08-24T19:50:53;26.30;1.00
32614;DHT22;19031;51.400;6.770;2022-08-24T19:53:19;26.20;99.90